Time;durP1;ratioP1;P1;durP2;ratioP2;P2;SDS_P1;SDS_P2;PMS_P1;PMS_P2;Temp;Humidity;BMP_temperature;BMP_pressure;BME280_temperature;BME280_humidity;BME280_pressure;Samples;Min_cycle;Max_cycle;Signal;HPM_P1;HPM_P2
2024/02/01 00:02:24;;;;;;;12.13;7.90;;;8.60;99.90;;;;;;4989696;28;20186;-68
2024/02/01 00:04:49;;;;;;;6.53;5.57;;;8.70;99.90;;;;;;4993427;28;20474;-68
2024/02/01 00:07:15;;;;;;;7.50;5.90;;;8.70;99.90;;;;;;4989238;28;20902;-69
2024/02/01 00:09:40;;;;;;;9.00;5.37;;;8.80;99.90;;;;;;4994108;28;20198;-69
2024/02/01 00:12:07;;;;;;;8.43;5.40;;;8.80;99.90;;;;;;5002934;28;20201;-68
2024/02/01 00:14:32;;;;;;;6.70;5.30;;;8.90;99.90;;;;;;4999433;28;20270;-69
2024/02/01 00:16:58;;;;;;;9.80;5.77;;;8.90;99.90;;;;;;4992648;28;21047;-68
2024/02/01 00:19:23;;;;;;;6.70;5.07;;;8.90;99.90;;;;;;4994124;28;20549;-68
2024/02/01 00:21:49;;;;;;;7.10;4.60;;;9.00;99.90;;;;;;4987278;28;20199;-68
2024/02/01 00:24:15;;;;;;;7.27;4.40;;;9.00;99.90;;;;;;4994509;28;20183;-68
2024/02/01 00:26:40;;;;;;;8.40;5.40;;;9.10;99.90;;;;;;5012885;28;20214;-68
2024/02/01 00:29:06;;;;;;;9.00;4.90;;;9.10;99.90;;;;;;5011602;28;20426;-68
2024/02/01 00:31:32;;;;;;;8.13;5.60;;;9.20;99.90;;;;;;4996450;28;20198;-68
2024/02/01 00:34:00;;;;;;;9.33;5.00;;;9.20;99.90;;;;;;4993155;28;20182;-68
2024/02/01 00:36:25;;;;;;;9.23;4.50;;;9.20;99.90;;;;;;4999549;28;20199;-68
2024/02/01 00:38:51;;;;;;;8.00;5.27;;;9.20;99.90;;;;;;4993257;28;20473;-68
2024/02/01 00:41:17;;;;;;;7.20;5.40;;;9.30;99.90;;;;;;4990011;28;20506;-68
2024/02/01 00:43:43;;;;;;;5.70;4.77;;;9.30;99.90;;;;;;4992660;28;20176;-68
2024/02/01 00:46:09;;;;;;;8.00;4.60;;;9.30;99.90;;;;;;4993310;28;21158;-68
2024/02/01 00:48:35;;;;;;;5.27;4.50;;;9.30;99.90;;;;;;5000319;28;20637;-68
2024/02/01 00:51:00;;;;;;;6.40;4.13;;;9.30;99.90;;;;;;5000772;28;20461;-68
2024/02/01 00:53:27;;;;;;;6.93;4.53;;;9.30;99.90;;;;;;5000116;28;20238;-68
2024/02/01 00:55:53;;;;;;;6.87;4.20;;;9.30;99.90;;;;;;5002732;28;20306;-68
2024/02/01 00:58:18;;;;;;;5.20;4.70;;;9.30;99.90;;;;;;4998433;28;20850;-70
2024/02/01 01:00:44;;;;;;;6.80;4.60;;;9.30;99.90;;;;;;4996237;28;20431;-68
2024/02/01 01:03:09;;;;;;;7.20;4.73;;;9.30;99.90;;;;;;4987349;28;20211;-69
2024/02/01 01:05:35;;;;;;;8.90;5.77;;;9.20;99.90;;;;;;4990806;28;20180;-70
2024/02/01 01:08:00;;;;;;;9.57;6.27;;;9.20;99.90;;;;;;4994038;28;20253;-69
2024/02/01 01:10:26;;;;;;;6.00;5.43;;;9.10;99.90;;;;;;4987747;28;20201;-69
2024/02/01 01:12:51;;;;;;;6.60;5.90;;;9.00;99.90;;;;;;4984043;28;20231;-70
2024/02/01 01:15:17;;;;;;;7.70;7.00;;;9.00;99.90;;;;;;4991266;28;20176;-69
2024/02/01 01:17:43;;;;;;;7.10;6.40;;;9.00;99.90;;;;;;4984429;28;20203;-69
2024/02/01 01:20:09;;;;;;;12.03;7.67;;;9.10;99.90;;;;;;4994097;28;20179;-69
2024/02/01 01:22:35;;;;;;;6.73;5.93;;;9.10;99.90;;;;;;4984659;28;20318;-68
2024/02/01 01:25:00;;;;;;;7.57;6.73;;;9.10;99.90;;;;;;4986205;28;20517;-68
2024/02/01 01:27:26;;;;;;;10.10;5.87;;;9.20;99.90;;;;;;5021488;23;20497;-67
2024/02/01 01:29:51;;;;;;;9.20;6.23;;;9.30;99.90;;;;;;5011969;28;20257;-67
2024/02/01 01:32:17;;;;;;;7.50;6.70;;;9.40;99.90;;;;;;5010413;28;20198;-67
2024/02/01 01:34:43;;;;;;;7.07;6.27;;;9.40;99.90;;;;;;5010772;28;20186;-67
2024/02/01 01:37:08;;;;;;;7.40;6.37;;;9.40;99.90;;;;;;5011419;28;20202;-67
2024/02/01 01:39:34;;;;;;;7.27;5.87;;;9.30;99.90;;;;;;5013173;28;20512;-67
2024/02/01 01:41:59;;;;;;;7.17;6.47;;;9.30;99.90;;;;;;5018326;28;20186;-67
2024/02/01 01:44:25;;;;;;;10.13;5.30;;;9.30;99.90;;;;;;5011189;28;20187;-67
2024/02/01 01:46:50;;;;;;;9.60;6.00;;;9.30;99.90;;;;;;5014177;28;20182;-67
2024/02/01 01:49:20;;;;;;;7.57;6.00;;;9.30;99.90;;;;;;5012413;28;20189;-67
2024/02/01 01:51:48;;;;;;;8.30;5.90;;;9.20;99.90;;;;;;5020554;28;20290;-67
2024/02/01 01:54:15;;;;;;;8.80;5.60;;;9.10;99.90;;;;;;5014886;28;20495;-67
2024/02/01 01:56:42;;;;;;;6.10;5.50;;;9.00;99.90;;;;;;5016521;28;20979;-67
2024/02/01 01:59:10;;;;;;;11.30;6.30;;;8.90;99.90;;;;;;5014618;28;20439;-67
2024/02/01 02:01:38;;;;;;;6.90;6.00;;;9.00;99.90;;;;;;5018957;28;20439;-67
2024/02/01 02:04:06;;;;;;;8.67;5.80;;;9.00;99.90;;;;;;5014896;28;20976;-67
2024/02/01 02:06:32;;;;;;;8.70;5.70;;;9.00;99.90;;;;;;5017493;28;20421;-67
2024/02/01 02:08:59;;;;;;;14.13;6.70;;;9.00;99.90;;;;;;5014698;28;20469;-66
2024/02/01 02:11:26;;;;;;;6.70;5.97;;;9.00;99.90;;;;;;5016969;28;20453;-67
2024/02/01 02:13:52;;;;;;;7.47;6.77;;;8.90;99.90;;;;;;5026011;28;20425;-67
2024/02/01 02:16:18;;;;;;;7.27;5.97;;;8.90;99.90;;;;;;5020037;28;20471;-67
2024/02/01 02:18:44;;;;;;;5.20;4.70;;;8.90;99.90;;;;;;5021077;28;20198;-67
2024/02/01 02:21:13;;;;;;;7.03;5.83;;;8.80;99.90;;;;;;5028071;28;20182;-67
2024/02/01 02:23:39;;;;;;;5.27;4.63;;;8.80;99.90;;;;;;5015734;28;20444;-66
2024/02/01 02:26:07;;;;;;;8.43;4.80;;;8.80;99.90;;;;;;5021313;28;20929;-66
2024/02/01 02:28:35;;;;;;;6.43;5.23;;;8.90;99.90;;;;;;5018975;28;20301;-67
2024/02/01 02:31:02;;;;;;;7.13;5.57;;;8.90;99.90;;;;;;5020626;28;20444;-66
2024/02/01 02:33:27;;;;;;;6.03;5.37;;;8.90;99.90;;;;;;5015514;28;20457;-66
2024/02/01 02:35:53;;;;;;;7.47;5.20;;;8.90;99.90;;;;;;5025691;28;20491;-67
2024/02/01 02:38:19;;;;;;;9.77;5.60;;;8.90;99.90;;;;;;5013025;28;21071;-67
2024/02/01 02:40:44;;;;;;;5.90;5.20;;;8.90;99.90;;;;;;5022937;28;20190;-67
2024/02/01 02:43:10;;;;;;;7.27;5.47;;;9.00;99.90;;;;;;5023778;28;20433;-67
2024/02/01 02:45:36;;;;;;;9.77;5.87;;;9.00;99.90;;;;;;5028841;28;20238;-66
2024/02/01 02:48:05;;;;;;;6.47;5.57;;;9.00;99.90;;;;;;5014537;28;20274;-66
2024/02/01 02:50:31;;;;;;;7.30;6.60;;;9.10;99.90;;;;;;5017358;28;20194;-67
2024/02/01 02:52:56;;;;;;;8.43;6.20;;;9.20;99.90;;;;;;5017766;28;20958;-67
2024/02/01 02:55:22;;;;;;;9.27;6.50;;;9.20;99.90;;;;;;5014965;28;20190;-67
2024/02/01 02:57:47;;;;;;;8.57;7.73;;;9.20;99.90;;;;;;5014862;28;20195;-67
2024/02/01 03:00:18;;;;;;;9.53;6.43;;;9.10;99.90;;;;;;5014845;28;20175;-67
2024/02/01 03:02:50;;;;;;;9.30;7.37;;;9.10;99.90;;;;;;5015687;28;20261;-67
2024/02/01 03:05:16;;;;;;;6.83;5.90;;;9.10;99.90;;;;;;5015215;28;20441;-66
2024/02/01 03:07:43;;;;;;;11.60;7.67;;;9.10;99.90;;;;;;5018324;28;20460;-66
2024/02/01 03:10:08;;;;;;;6.60;6.00;;;9.10;99.90;;;;;;5014765;28;20531;-66
2024/02/01 03:12:34;;;;;;;11.20;7.00;;;9.10;99.90;;;;;;5016644;28;20488;-66
2024/02/01 03:14:59;;;;;;;6.10;5.50;;;9.10;99.90;;;;;;5032979;28;20174;-67
2024/02/01 03:17:25;;;;;;;9.60;5.33;;;9.10;99.90;;;;;;5013068;28;20225;-67
2024/02/01 03:19:51;;;;;;;6.10;5.50;;;9.10;99.90;;;;;;5014462;28;20183;-67
2024/02/01 03:22:19;;;;;;;5.93;5.43;;;9.10;99.90;;;;;;5014776;28;20175;-66
2024/02/01 03:24:46;;;;;;;6.30;5.10;;;9.10;99.90;;;;;;5020268;28;20194;-66
2024/02/01 03:27:14;;;;;;;6.27;5.67;;;9.10;99.90;;;;;;5014199;28;20565;-67
2024/02/01 03:29:42;;;;;;;5.10;4.57;;;9.10;99.90;;;;;;5013253;28;20492;-67
2024/02/01 03:32:08;;;;;;;6.60;5.57;;;9.00;99.90;;;;;;5017056;28;20475;-66
2024/02/01 03:34:34;;;;;;;4.90;4.50;;;9.00;99.90;;;;;;5017113;28;20513;-67
2024/02/01 03:37:01;;;;;;;6.23;4.70;;;8.90;99.90;;;;;;5016741;28;20566;-66
2024/02/01 03:39:29;;;;;;;6.43;4.40;;;8.90;99.90;;;;;;5007196;28;20163;-66
2024/02/01 03:41:56;;;;;;;5.50;5.00;;;8.90;99.90;;;;;;5013856;28;20438;-67
2024/02/01 03:44:23;;;;;;;6.50;4.53;;;8.90;99.90;;;;;;5016294;28;20954;-66
2024/02/01 03:46:51;;;;;;;4.87;4.30;;;8.90;99.90;;;;;;5015928;28;20507;-66
2024/02/01 03:49:17;;;;;;;7.90;4.93;;;8.90;99.90;;;;;;5016252;28;20456;-66
2024/02/01 03:51:43;;;;;;;6.60;4.60;;;8.90;99.90;;;;;;5015885;28;20504;-67
2024/02/01 03:54:09;;;;;;;5.90;5.30;;;8.90;99.90;;;;;;5023445;28;20839;-67
2024/02/01 03:56:35;;;;;;;6.53;4.80;;;8.90;99.90;;;;;;5008113;28;20183;-67
2024/02/01 03:59:08;;;;;;;5.10;4.40;;;8.90;99.90;;;;;;5016744;28;20491;-66
2024/02/01 04:01:33;;;;;;;6.90;4.20;;;8.90;99.90;;;;;;5016277;28;20190;-66
2024/02/01 04:03:59;;;;;;;4.10;3.70;;;8.90;99.90;;;;;;5013723;28;20794;-67
2024/02/01 04:06:25;;;;;;;4.13;3.30;;;9.00;99.90;;;;;;5017485;28;20187;-67
2024/02/01 04:08:55;;;;;;;4.53;4.07;;;8.90;99.90;;;;;;5018533;28;20210;-67
2024/02/01 04:11:21;;;;;;;5.30;4.33;;;8.90;99.90;;;;;;5016723;28;20429;-67
2024/02/01 04:13:46;;;;;;;7.27;4.30;;;9.00;99.90;;;;;;5013305;28;20433;-66
2024/02/01 04:16:12;;;;;;;4.73;4.33;;;9.00;99.90;;;;;;5015585;28;20945;-67
2024/02/01 04:18:37;;;;;;;4.63;3.43;;;9.00;99.90;;;;;;5024133;28;20725;-66
2024/02/01 04:21:03;;;;;;;3.83;3.50;;;9.00;99.90;;;;;;5019514;28;20313;-66
2024/02/01 04:23:29;;;;;;;7.50;4.10;;;9.10;99.90;;;;;;5020152;28;20178;-67
2024/02/01 04:25:56;;;;;;;5.60;4.03;;;9.10;99.90;;;;;;5013446;28;20445;-66
2024/02/01 04:28:21;;;;;;;4.93;3.87;;;9.20;99.90;;;;;;5012813;28;20628;-67
2024/02/01 04:30:50;;;;;;;4.43;3.60;;;9.20;99.90;;;;;;5020316;28;20469;-66
2024/02/01 04:33:18;;;;;;;3.70;3.40;;;9.10;99.90;;;;;;5018633;28;20289;-67
2024/02/01 04:35:44;;;;;;;4.90;3.40;;;9.10;99.90;;;;;;5012595;28;20434;-66
2024/02/01 04:38:09;;;;;;;4.40;3.47;;;9.20;99.90;;;;;;5011858;28;20485;-67
2024/02/01 04:40:35;;;;;;;3.90;3.50;;;9.20;99.90;;;;;;5013937;28;20431;-67
2024/02/01 04:43:02;;;;;;;3.60;3.30;;;9.20;99.90;;;;;;5031306;28;20188;-66
2024/02/01 04:45:27;;;;;;;4.47;3.80;;;9.20;99.90;;;;;;5021567;28;20178;-66
2024/02/01 04:47:53;;;;;;;3.70;3.27;;;9.20;99.90;;;;;;5016355;28;20452;-66
2024/02/01 04:50:19;;;;;;;4.20;3.80;;;9.20;99.90;;;;;;5012445;28;20188;-67
2024/02/01 04:52:44;;;;;;;3.30;3.00;;;9.10;99.90;;;;;;5019199;28;20256;-67
2024/02/01 04:55:10;;;;;;;4.03;3.47;;;9.20;99.90;;;;;;5011732;28;20517;-66
2024/02/01 04:57:40;;;;;;;3.93;3.63;;;9.20;99.90;;;;;;5016752;28;20206;-66
2024/02/01 05:00:14;;;;;;;5.07;4.20;;;9.20;99.90;;;;;;5011735;28;20445;-68
2024/02/01 05:02:40;;;;;;;8.50;6.53;;;9.20;99.90;;;;;;5012041;28;20580;-67
2024/02/01 05:05:07;;;;;;;7.20;3.80;;;9.20;99.90;;;;;;5010934;28;20481;-67
2024/02/01 05:07:33;;;;;;;4.07;3.70;;;9.10;99.90;;;;;;5012084;28;20453;-66
2024/02/01 05:09:58;;;;;;;3.27;2.97;;;9.10;99.90;;;;;;5012371;28;20434;-66
2024/02/01 05:12:24;;;;;;;7.70;2.77;;;9.10;99.90;;;;;;5012340;28;20812;-66
2024/02/01 05:14:50;;;;;;;3.40;3.10;;;9.10;99.90;;;;;;5011630;28;20174;-66
2024/02/01 05:17:15;;;;;;;2.90;2.70;;;9.10;99.90;;;;;;5010308;28;20191;-66
2024/02/01 05:19:41;;;;;;;4.80;3.47;;;9.20;99.90;;;;;;5011437;28;20202;-66
2024/02/01 05:22:07;;;;;;;3.60;3.30;;;9.20;99.90;;;;;;5012372;28;20249;-67
2024/02/01 05:24:33;;;;;;;4.90;3.97;;;9.20;99.90;;;;;;5010524;28;20309;-67
2024/02/01 05:26:59;;;;;;;5.90;5.50;;;9.20;99.90;;;;;;5011471;28;20219;-67
2024/02/01 05:29:25;;;;;;;3.10;2.90;;;9.10;99.90;;;;;;5012404;28;20505;-67
2024/02/01 05:31:57;;;;;;;4.07;3.07;;;9.00;99.90;;;;;;5010164;28;20671;-67
2024/02/01 05:34:23;;;;;;;3.77;3.23;;;8.90;99.90;;;;;;5012255;28;20927;-67
2024/02/01 05:36:51;;;;;;;7.23;3.50;;;8.90;99.90;;;;;;5010875;28;20434;-67
2024/02/01 05:39:27;;;;;;;5.93;3.47;;;8.80;99.90;;;;;;5012455;28;20242;-66
2024/02/01 05:41:54;;;;;;;3.90;3.60;;;8.80;99.90;;;;;;5020125;28;20460;-67
2024/02/01 05:44:21;;;;;;;4.23;3.83;;;8.80;99.90;;;;;;5016974;28;20412;-66
2024/02/01 05:46:54;;;;;;;3.33;3.03;;;8.80;99.90;;;;;;5017876;28;20438;-66
2024/02/01 05:49:24;;;;;;;3.50;3.20;;;8.90;99.90;;;;;;5010931;28;20468;-66
2024/02/01 05:51:52;;;;;;;3.90;3.60;;;8.90;99.90;;;;;;5013055;28;20463;-66
2024/02/01 05:54:22;;;;;;;5.47;4.00;;;8.90;99.90;;;;;;5022980;28;20418;-67
2024/02/01 05:56:48;;;;;;;4.03;3.40;;;9.00;99.90;;;;;;5010674;28;20806;-66
2024/02/01 05:59:17;;;;;;;5.47;4.47;;;9.00;99.90;;;;;;5010192;28;20496;-67
2024/02/01 06:01:44;;;;;;;3.30;3.00;;;9.00;99.90;;;;;;5013145;28;20778;-66
2024/02/01 06:04:10;;;;;;;6.57;3.73;;;9.00;99.90;;;;;;5019098;28;20443;-67
2024/02/01 06:06:37;;;;;;;6.87;3.50;;;9.00;99.90;;;;;;5031640;28;20539;-67
2024/02/01 06:09:04;;;;;;;4.33;3.93;;;9.00;99.90;;;;;;5016736;28;20442;-67
2024/02/01 06:11:30;;;;;;;7.07;4.10;;;9.00;99.90;;;;;;5010111;28;20772;-67
2024/02/01 06:13:55;;;;;;;7.07;4.10;;;8.90;99.90;;;;;;5011613;28;20447;-67
2024/02/01 06:16:21;;;;;;;6.33;4.27;;;8.80;99.90;;;;;;5010328;28;20190;-67
2024/02/01 06:18:46;;;;;;;7.70;4.10;;;8.70;99.90;;;;;;5011526;28;20195;-66
2024/02/01 06:21:16;;;;;;;5.07;4.57;;;8.60;99.90;;;;;;5010876;28;20177;-67
2024/02/01 06:23:42;;;;;;;4.63;3.90;;;8.50;99.90;;;;;;5010725;28;20179;-67
2024/02/01 06:26:08;;;;;;;10.10;4.47;;;8.40;99.90;;;;;;5010303;28;20548;-67
2024/02/01 06:28:34;;;;;;;5.40;4.23;;;8.40;99.90;;;;;;5011102;28;20492;-67
2024/02/01 06:31:00;;;;;;;7.33;4.90;;;8.30;99.90;;;;;;5008470;28;20229;-66
2024/02/01 06:33:28;;;;;;;8.13;4.80;;;8.30;99.90;;;;;;5011347;28;20489;-66
2024/02/01 06:35:54;;;;;;;15.70;10.20;;;8.20;99.90;;;;;;5012249;28;20178;-67
2024/02/01 06:38:25;;;;;;;6.47;4.33;;;8.20;99.90;;;;;;4995361;28;21023;-66
2024/02/01 06:41:17;;;;;;;6.77;6.07;;;8.20;99.90;;;;;;5003998;28;20484;-68
2024/02/01 06:44:09;;;;;;;6.90;5.53;;;8.20;99.90;;;;;;5014497;28;20877;-67
2024/02/01 06:47:05;;;;;;;6.13;5.50;;;8.10;99.90;;;;;;5018547;28;20433;-67
2024/02/01 06:54:50;;;;;;;7.50;5.47;;;8.00;99.90;;;;;;5014093;28;20509;-66
2024/02/01 06:57:22;;;;;;;10.10;7.33;;;8.10;99.90;;;;;;5014555;28;20450;-66
2024/02/01 07:02:47;;;;;;;8.27;6.30;;;8.10;99.90;;;;;;5018156;28;20441;-66
2024/02/01 07:05:25;;;;;;;10.37;8.10;;;8.10;99.90;;;;;;5014804;28;20457;-67
2024/02/01 07:08:01;;;;;;;7.37;6.40;;;8.10;99.90;;;;;;5013650;28;20448;-67
2024/02/01 07:10:42;;;;;;;10.00;5.87;;;8.20;99.90;;;;;;5005731;28;20449;-68
2024/02/01 07:13:21;;;;;;;6.83;5.03;;;8.20;99.90;;;;;;5012163;28;20464;-68
2024/02/01 07:15:53;;;;;;;10.73;5.40;;;8.20;99.90;;;;;;5011561;28;20469;-67
2024/02/01 07:18:20;;;;;;;6.93;4.43;;;8.20;99.90;;;;;;5012936;28;20449;-67
2024/02/01 07:26:00;;;;;;;7.53;4.63;;;8.00;99.90;;;;;;5013416;28;20437;-68
2024/02/01 07:58:40;;;;;;;5.03;4.10;;;7.80;99.90;;;;;;5013058;28;20507;-69
2024/02/01 08:01:17;;;;;;;3.63;3.27;;;7.90;99.90;;;;;;5017798;28;20433;-70
2024/02/01 08:04:12;;;;;;;6.67;3.80;;;7.90;99.90;;;;;;5010246;28;20253;-69
2024/02/01 08:09:25;;;;;;;5.03;4.03;;;7.90;99.90;;;;;;5009299;28;20433;-67
2024/02/01 08:11:51;;;;;;;4.43;3.63;;;7.90;99.90;;;;;;5006559;28;20462;-67
2024/02/01 08:14:16;;;;;;;4.30;3.90;;;8.00;99.90;;;;;;5013511;28;20198;-67
2024/02/01 08:16:43;;;;;;;5.50;4.43;;;8.00;99.90;;;;;;5012398;28;20261;-67
2024/02/01 08:19:11;;;;;;;11.47;3.43;;;8.00;99.90;;;;;;5008760;28;20171;-67
2024/02/01 08:21:39;;;;;;;5.90;4.37;;;7.90;99.90;;;;;;5010917;28;20434;-67
2024/02/01 08:24:06;;;;;;;4.40;3.90;;;7.90;99.90;;;;;;5010324;28;20499;-67
2024/02/01 08:26:37;;;;;;;6.50;3.47;;;7.90;99.90;;;;;;5009364;28;20430;-67
2024/02/01 08:29:06;;;;;;;9.47;4.63;;;7.90;99.90;;;;;;5011561;28;20488;-68
2024/02/01 08:31:37;;;;;;;5.17;3.63;;;7.80;99.90;;;;;;5017341;28;20429;-68
2024/02/01 08:34:05;;;;;;;4.47;3.20;;;7.80;99.90;;;;;;5010377;28;20438;-68
2024/02/01 08:36:31;;;;;;;3.70;3.40;;;7.80;99.90;;;;;;5012293;28;20512;-68
2024/02/01 08:38:59;;;;;;;5.50;4.00;;;7.80;99.90;;;;;;5008113;28;20469;-67
2024/02/01 08:41:25;;;;;;;7.70;4.00;;;7.80;99.90;;;;;;5013201;28;20428;-68
2024/02/01 08:43:51;;;;;;;7.60;3.53;;;7.90;99.90;;;;;;5017295;28;20778;-68
2024/02/01 08:46:22;;;;;;;4.67;3.43;;;7.90;99.90;;;;;;5012177;28;20433;-68
2024/02/01 08:48:49;;;;;;;4.20;3.70;;;7.90;99.90;;;;;;5012057;28;20195;-67
2024/02/01 08:51:17;;;;;;;5.10;4.30;;;7.90;99.90;;;;;;5011938;28;20426;-68
2024/02/01 08:53:43;;;;;;;5.33;3.53;;;8.00;99.90;;;;;;5012022;28;20497;-68
2024/02/01 08:56:08;;;;;;;3.70;2.93;;;8.00;99.90;;;;;;5011265;28;20511;-68
2024/02/01 08:58:38;;;;;;;3.30;2.70;;;8.00;99.90;;;;;;5010368;28;20194;-68
2024/02/01 09:01:04;;;;;;;4.83;3.77;;;7.90;99.90;;;;;;5014388;28;20179;-68
2024/02/01 09:03:30;;;;;;;6.07;3.60;;;7.90;99.90;;;;;;5012376;28;20512;-68
2024/02/01 09:06:04;;;;;;;7.40;3.07;;;7.90;99.90;;;;;;5011976;28;20480;-67
2024/02/01 09:08:36;;;;;;;3.13;2.80;;;7.90;99.90;;;;;;4996130;28;20504;-67
2024/02/01 09:11:09;;;;;;;3.83;3.10;;;7.90;99.90;;;;;;5013417;28;20454;-67
2024/02/01 09:13:36;;;;;;;5.63;3.43;;;7.90;99.90;;;;;;5010571;28;20468;-68
2024/02/01 09:16:02;;;;;;;4.87;3.20;;;8.00;99.90;;;;;;5012862;28;20935;-68
2024/02/01 09:18:28;;;;;;;4.10;3.10;;;8.00;99.90;;;;;;5011629;28;20541;-68
2024/02/01 09:20:53;;;;;;;3.83;3.33;;;8.10;99.90;;;;;;5010560;28;20513;-67
2024/02/01 09:23:19;;;;;;;5.03;4.53;;;8.10;99.90;;;;;;5010213;28;20193;-68
2024/02/01 09:25:44;;;;;;;4.97;3.70;;;8.10;99.90;;;;;;5008870;28;20237;-68
2024/02/01 09:28:14;;;;;;;4.03;3.73;;;8.20;99.90;;;;;;5010842;28;20218;-68
2024/02/01 09:30:45;;;;;;;4.23;3.83;;;8.20;99.90;;;;;;5010700;28;20553;-67
2024/02/01 09:33:15;;;;;;;4.20;3.80;;;8.20;99.90;;;;;;5011605;28;20557;-68
2024/02/01 09:35:41;;;;;;;8.83;4.60;;;8.20;99.90;;;;;;5011288;28;20433;-68
2024/02/01 09:38:07;;;;;;;3.77;3.47;;;8.20;99.90;;;;;;5009694;28;20489;-67
2024/02/01 09:40:33;;;;;;;5.97;3.90;;;8.30;99.90;;;;;;5010885;28;20453;-68
2024/02/01 09:42:58;;;;;;;4.17;3.27;;;8.40;99.90;;;;;;5011166;28;20186;-68
2024/02/01 09:45:29;;;;;;;4.27;3.77;;;8.60;99.90;;;;;;5012470;28;20189;-68
2024/02/01 09:47:56;;;;;;;4.07;3.67;;;8.80;99.90;;;;;;5005712;28;20245;-68
2024/02/01 09:50:23;;;;;;;4.00;3.60;;;8.90;99.90;;;;;;5011298;28;21183;-68
2024/02/01 09:52:51;;;;;;;5.07;3.67;;;9.00;99.90;;;;;;5010345;28;21009;-68
2024/02/01 09:55:22;;;;;;;5.43;3.63;;;8.90;99.90;;;;;;5010217;28;20429;-68
2024/02/01 09:57:49;;;;;;;3.33;2.80;;;8.90;99.90;;;;;;5010059;28;20461;-67
2024/02/01 10:00:22;;;;;;;3.37;2.27;;;8.90;99.90;;;;;;5014726;28;20438;-68
2024/02/01 10:02:53;;;;;;;2.90;2.60;;;8.90;99.90;;;;;;5013629;28;20467;-68
2024/02/01 10:05:20;;;;;;;3.27;2.70;;;8.80;99.90;;;;;;5009795;28;20425;-68
2024/02/01 10:07:46;;;;;;;3.30;3.10;;;8.80;99.90;;;;;;5009287;28;20454;-68
2024/02/01 10:10:13;;;;;;;3.30;2.73;;;8.80;99.90;;;;;;5009252;28;20440;-67
2024/02/01 10:12:40;;;;;;;3.43;3.10;;;8.80;99.90;;;;;;5012107;28;20477;-68
2024/02/01 10:15:10;;;;;;;3.20;2.67;;;8.80;99.90;;;;;;5012401;28;20541;-67
2024/02/01 10:17:46;;;;;;;2.80;2.60;;;8.90;99.90;;;;;;5012931;28;20507;-68
2024/02/01 10:20:35;;;;;;;3.20;2.80;;;8.90;99.90;;;;;;5014750;28;20930;-68
2024/02/01 10:23:09;;;;;;;2.80;2.27;;;9.00;99.90;;;;;;5010979;28;20441;-68
2024/02/01 10:25:39;;;;;;;2.70;2.50;;;9.00;99.90;;;;;;5014282;28;20436;-68
2024/02/01 10:28:11;;;;;;;4.23;3.07;;;9.00;99.90;;;;;;5014536;28;20469;-68
2024/02/01 10:30:41;;;;;;;4.33;2.60;;;9.00;99.90;;;;;;5017245;28;20485;-68
2024/02/01 10:33:09;;;;;;;1.97;1.77;;;9.10;99.90;;;;;;5013084;28;20495;-68
2024/02/01 10:35:35;;;;;;;6.20;2.40;;;9.00;99.90;;;;;;5014506;28;20429;-68
2024/02/01 10:38:11;;;;;;;2.53;2.33;;;9.00;99.90;;;;;;5012429;28;20456;-68
2024/02/01 10:40:44;;;;;;;4.87;2.80;;;9.00;99.90;;;;;;5014757;28;20421;-68
2024/02/01 10:43:17;;;;;;;3.10;2.90;;;9.10;99.90;;;;;;5010202;28;20539;-68
2024/02/01 10:45:45;;;;;;;2.93;2.53;;;9.20;99.90;;;;;;5017433;28;20433;-68
2024/02/01 10:48:13;;;;;;;3.17;2.83;;;9.20;99.90;;;;;;5014008;28;20558;-68
2024/02/01 10:50:39;;;;;;;3.47;3.17;;;9.20;99.90;;;;;;5013781;28;20437;-68
2024/02/01 10:53:11;;;;;;;4.37;2.63;;;9.30;99.90;;;;;;5013992;28;20930;-68
2024/02/01 10:55:39;;;;;;;3.10;2.80;;;9.30;99.90;;;;;;5013342;28;20811;-68
2024/02/01 10:58:12;;;;;;;2.70;2.43;;;9.50;99.90;;;;;;5012477;28;20453;-68
2024/02/01 11:00:37;;;;;;;3.07;2.77;;;9.60;99.90;;;;;;5017811;28;20456;-68
2024/02/01 11:03:07;;;;;;;2.10;1.90;;;9.60;99.90;;;;;;5014010;28;20469;-68
2024/02/01 11:05:35;;;;;;;2.70;2.50;;;9.60;99.90;;;;;;5014269;28;20192;-68
2024/02/01 11:08:02;;;;;;;2.53;2.33;;;9.60;99.90;;;;;;5014289;28;20875;-68
2024/02/01 11:10:28;;;;;;;4.10;2.37;;;9.50;99.90;;;;;;5012705;28;20483;-68
2024/02/01 11:12:55;;;;;;;2.97;2.37;;;9.50;99.90;;;;;;5019331;28;20977;-68
2024/02/01 11:15:29;;;;;;;2.33;1.90;;;9.40;99.90;;;;;;5012583;28;20579;-68
2024/02/01 11:17:59;;;;;;;114.70;66.93;;;9.50;99.90;;;;;;5012950;28;20845;-68
2024/02/01 11:20:25;;;;;;;8.43;4.03;;;9.50;99.90;;;;;;5011692;28;20441;-68
2024/02/01 11:22:57;;;;;;;2.60;2.40;;;9.60;99.90;;;;;;5013858;28;20504;-68
2024/02/01 11:25:32;;;;;;;2.40;2.20;;;9.70;99.90;;;;;;5013514;28;20552;-66
2024/02/01 11:27:58;;;;;;;2.40;2.00;;;9.60;99.90;;;;;;5014789;28;20464;-67
2024/02/01 11:30:28;;;;;;;2.00;1.80;;;9.70;99.90;;;;;;5012683;28;20557;-67
2024/02/01 11:32:55;;;;;;;1.70;1.60;;;9.70;99.90;;;;;;5013408;28;20464;-67
2024/02/01 11:35:22;;;;;;;1.47;1.37;;;9.80;99.90;;;;;;5005974;28;20832;-65
2024/02/01 11:38:01;;;;;;;1.33;1.23;;;9.90;99.90;;;;;;5013621;28;20438;-69
2024/02/01 11:40:27;;;;;;;1.00;1.00;;;10.00;99.90;;;;;;5011996;28;20444;-69
2024/02/01 11:42:53;;;;;;;1.00;0.87;;;10.20;99.90;;;;;;5011964;28;20442;-67
2024/02/01 11:45:18;;;;;;;2.50;1.10;;;10.40;99.90;;;;;;5016812;28;20426;-68
2024/02/01 11:47:45;;;;;;;1.20;1.10;;;10.60;99.90;;;;;;5011973;28;20229;-68
2024/02/01 11:50:11;;;;;;;1.57;0.77;;;10.80;99.90;;;;;;5018531;28;20255;-68
2024/02/01 11:52:54;;;;;;;1.17;1.00;;;11.00;99.90;;;;;;5015133;28;20480;-67
2024/02/01 11:55:20;;;;;;;1.00;0.80;;;11.20;99.90;;;;;;5027775;28;20433;-67
2024/02/01 11:57:47;;;;;;;0.80;0.80;;;11.00;99.90;;;;;;5011826;28;20456;-68
2024/02/01 12:00:18;;;;;;;1.33;1.27;;;10.90;99.90;;;;;;5013262;28;20425;-69
2024/02/01 12:02:45;;;;;;;0.70;0.70;;;11.10;99.90;;;;;;5013169;28;20463;-69
2024/02/01 12:05:12;;;;;;;1.40;1.20;;;11.30;99.90;;;;;;5013446;28;20490;-70
2024/02/01 12:07:37;;;;;;;0.80;0.80;;;11.40;99.90;;;;;;5011004;28;20462;-68
2024/02/01 12:10:10;;;;;;;1.10;1.00;;;11.30;99.90;;;;;;5011378;28;20425;-70
2024/02/01 12:12:36;;;;;;;0.93;0.87;;;11.20;99.90;;;;;;5010391;28;20202;-68
2024/02/01 12:15:04;;;;;;;0.70;0.67;;;11.00;99.90;;;;;;5016928;28;20437;-68
2024/02/01 12:17:42;;;;;;;1.37;0.93;;;10.80;99.90;;;;;;5015316;28;20345;-68
2024/02/01 12:20:15;;;;;;;0.90;0.90;;;10.70;99.90;;;;;;5014676;28;20425;-68
2024/02/01 12:22:48;;;;;;;1.30;1.20;;;10.60;99.90;;;;;;5013202;28;20913;-68
2024/02/01 12:25:20;;;;;;;1.00;1.00;;;10.50;99.90;;;;;;5012290;28;20446;-68
2024/02/01 12:27:45;;;;;;;1.03;1.00;;;10.70;99.90;;;;;;5011970;28;20465;-68
2024/02/01 12:30:14;;;;;;;1.10;1.00;;;10.80;99.90;;;;;;5013160;28;20426;-68
2024/02/01 12:32:46;;;;;;;0.90;0.90;;;10.90;99.90;;;;;;5012675;28;20229;-68
2024/02/01 12:35:12;;;;;;;0.80;0.80;;;10.80;99.90;;;;;;5011028;28;20465;-68
2024/02/01 12:37:40;;;;;;;0.70;0.70;;;10.80;99.90;;;;;;5014961;28;20540;-68
2024/02/01 12:40:08;;;;;;;1.00;0.90;;;10.80;99.90;;;;;;5012973;28;20907;-68
2024/02/01 12:42:33;;;;;;;1.03;0.93;;;10.80;99.90;;;;;;5011022;28;20438;-71
2024/02/01 12:44:59;;;;;;;2.53;1.83;;;10.80;99.90;;;;;;5020289;28;20858;-68
2024/02/01 12:47:25;;;;;;;1.47;1.37;;;10.80;99.90;;;;;;5010361;28;20728;-69
2024/02/01 12:49:51;;;;;;;2.67;1.47;;;10.70;99.90;;;;;;5013187;28;20445;-67
2024/02/01 12:52:17;;;;;;;1.43;1.33;;;10.60;99.90;;;;;;5017708;28;20205;-68
2024/02/01 12:54:45;;;;;;;1.47;1.37;;;10.50;99.90;;;;;;5011650;28;20171;-68
2024/02/01 12:57:10;;;;;;;1.70;1.20;;;10.40;99.90;;;;;;5011755;28;20965;-68
2024/02/01 12:59:37;;;;;;;1.23;1.13;;;10.50;99.90;;;;;;5012557;28;20426;-68
2024/02/01 13:02:04;;;;;;;1.43;1.33;;;10.40;99.90;;;;;;5011801;28;20187;-68
2024/02/01 13:04:30;;;;;;;1.30;1.20;;;10.40;99.90;;;;;;5011698;28;20494;-68
2024/02/01 13:06:56;;;;;;;2.60;1.90;;;10.30;99.90;;;;;;5009216;28;21022;-68
2024/02/01 13:09:33;;;;;;;1.77;1.67;;;10.30;99.90;;;;;;5016169;28;20174;-68
2024/02/01 13:11:58;;;;;;;2.00;1.90;;;10.30;99.90;;;;;;5013273;28;20190;-68
2024/02/01 13:14:31;;;;;;;2.43;2.23;;;10.20;99.90;;;;;;5012138;28;20962;-68
2024/02/01 13:16:56;;;;;;;2.47;2.27;;;10.10;99.90;;;;;;5008763;28;20202;-68
2024/02/01 13:19:26;;;;;;;2.40;2.20;;;10.00;99.90;;;;;;5010899;28;20487;-67
2024/02/01 13:21:52;;;;;;;2.70;2.50;;;9.90;99.90;;;;;;5009802;28;20183;-68
2024/02/01 13:24:17;;;;;;;3.27;3.00;;;9.80;99.90;;;;;;5011723;28;20445;-69
2024/02/01 13:26:43;;;;;;;2.93;2.73;;;9.70;99.90;;;;;;5010143;28;20437;-68
2024/02/01 13:29:13;;;;;;;3.70;3.40;;;9.60;99.90;;;;;;5042498;23;20226;-69
2024/02/01 13:31:40;;;;;;;3.57;3.27;;;9.60;99.90;;;;;;5029209;28;20185;-69
2024/02/01 13:34:06;;;;;;;3.67;3.37;;;9.60;99.90;;;;;;5028275;28;21035;-69
2024/02/01 13:36:32;;;;;;;3.90;3.60;;;9.40;99.90;;;;;;5026370;28;20457;-69
2024/02/01 13:38:57;;;;;;;4.40;3.13;;;9.40;99.90;;;;;;5041131;28;20189;-68
2024/02/01 13:41:23;;;;;;;4.07;3.67;;;9.30;99.90;;;;;;5051054;28;20247;-69
2024/02/01 13:43:48;;;;;;;4.97;4.47;;;9.20;99.90;;;;;;5046146;28;20733;-69
2024/02/01 13:46:14;;;;;;;3.80;3.50;;;9.20;99.90;;;;;;5044654;28;20663;-69